sensor_id;sensor_type;location;lat;lon;timestamp;temperature;humidity
32446;DHT22;18899;50.748;7.102;2023-04-06T00:00:50;4.60;99.90
32446;DHT22;18899;50.748;7.102;2023-04-06T00:03:15;4.50;99.90
32446;DHT22;18899;50.748;7.102;2023-04-06T00:05:41;4.40;99.90
32446;DHT22;18899;50.748;7.102;2023-04-06T00:08:07;4.40;99.90
32446;DHT22;18899;50.748;7.102;2023-04-06T00:10:32;4.30;99.90
32446;DHT22;18899;50.748;7.102;2023-04-06T00:12:59;4.30;99.90
32446;DHT22;18899;50.748;7.102;2023-04-06T00:15:26;4.20;99.90
32446;DHT22;18899;50.748;7.102;2023-04-06T00:17:52;4.20;99.90
32446;DHT22;18899;50.748;7.102;2023-04-06T00:20:18;4.30;99.90
32446;DHT22;18899;50.748;7.102;2023-04-06T00:22:44;4.30;99.90
32446;DHT22;18899;50.748;7.102;2023-04-06T00:25:10;4.20;99.90
32446;DHT22;18899;50.748;7.102;2023-04-06T00:27:37;4.20;99.90
32446;DHT22;18899;50.748;7.102;2023-04-06T00:30:04;4.20;99.90
32446;DHT22;18899;50.748;7.102;2023-04-06T00:32:30;4.10;99.90
32446;DHT22;18899;50.748;7.102;2023-04-06T00:34:56;4.10;99.90
32446;DHT22;18899;50.748;7.102;2023-04-06T00:37:22;4.10;99.90
32446;DHT22;18899;50.748;7.102;2023-04-06T00:39:47;4.10;99.90
32446;DHT22;18899;50.748;7.102;2023-04-06T00:42:13;4.20;99.90
32446;DHT22;18899;50.748;7.102;2023-04-06T00:44:42;4.20;99.90
32446;DHT22;18899;50.748;7.102;2023-04-06T00:47:08;4.30;99.90
32446;DHT22;18899;50.748;7.102;2023-04-06T00:49:34;4.30;99.90
32446;DHT22;18899;50.748;7.102;2023-04-06T00:52:00;4.20;99.90
32446;DHT22;18899;50.748;7.102;2023-04-06T00:54:26;4.10;99.90
32446;DHT22;18899;50.748;7.102;2023-04-06T00:56:52;4.00;99.90
32446;DHT22;18899;50.748;7.102;2023-04-06T00:59:18;4.00;99.90
32446;DHT22;18899;50.748;7.102;2023-04-06T01:01:43;4.10;99.90
32446;DHT22;18899;50.748;7.102;2023-04-06T01:04:09;4.10;99.90
32446;DHT22;18899;50.748;7.102;2023-04-06T01:06:35;4.00;99.90
32446;DHT22;18899;50.748;7.102;2023-04-06T01:09:01;4.00;99.90
32446;DHT22;18899;50.748;7.102;2023-04-06T01:11:26;4.00;99.90
32446;DHT22;18899;50.748;7.102;2023-04-06T01:13:53;4.00;99.90
32446;DHT22;18899;50.748;7.102;2023-04-06T01:16:18;4.10;99.90
32446;DHT22;18899;50.748;7.102;2023-04-06T01:18:44;4.10;99.90
32446;DHT22;18899;50.748;7.102;2023-04-06T01:21:10;4.30;99.90
32446;DHT22;18899;50.748;7.102;2023-04-06T01:23:44;4.40;99.90
32446;DHT22;18899;50.748;7.102;2023-04-06T01:26:11;4.40;99.90
32446;DHT22;18899;50.748;7.102;2023-04-06T01:28:36;4.30;99.90
32446;DHT22;18899;50.748;7.102;2023-04-06T01:31:04;4.30;99.90
32446;DHT22;18899;50.748;7.102;2023-04-06T01:33:29;4.40;99.90
32446;DHT22;18899;50.748;7.102;2023-04-06T01:35:55;4.20;99.90
32446;DHT22;18899;50.748;7.102;2023-04-06T01:38:21;4.10;99.90
32446;DHT22;18899;50.748;7.102;2023-04-06T01:40:46;4.10;99.90
32446;DHT22;18899;50.748;7.102;2023-04-06T01:43:12;4.00;99.90
32446;DHT22;18899;50.748;7.102;2023-04-06T01:45:38;4.10;99.90
32446;DHT22;18899;50.748;7.102;2023-04-06T01:48:03;4.10;99.90
32446;DHT22;18899;50.748;7.102;2023-04-06T01:50:29;4.10;99.90
32446;DHT22;18899;50.748;7.102;2023-04-06T01:52:54;4.00;99.90
32446;DHT22;18899;50.748;7.102;2023-04-06T01:55:20;3.90;99.90
32446;DHT22;18899;50.748;7.102;2023-04-06T01:57:46;3.80;99.90
32446;DHT22;18899;50.748;7.102;2023-04-06T02:00:12;3.70;99.90
32446;DHT22;18899;50.748;7.102;2023-04-06T02:02:37;3.60;99.90
32446;DHT22;18899;50.748;7.102;2023-04-06T02:05:03;3.60;99.90
32446;DHT22;18899;50.748;7.102;2023-04-06T02:07:29;3.60;99.90
32446;DHT22;18899;50.748;7.102;2023-04-06T02:09:55;3.50;99.90
32446;DHT22;18899;50.748;7.102;2023-04-06T02:12:21;3.40;99.90
32446;DHT22;18899;50.748;7.102;2023-04-06T02:14:46;3.40;99.90
32446;DHT22;18899;50.748;7.102;2023-04-06T02:17:12;3.40;99.90
32446;DHT22;18899;50.748;7.102;2023-04-06T02:19:37;3.50;99.90
32446;DHT22;18899;50.748;7.102;2023-04-06T02:22:03;3.40;99.90
32446;DHT22;18899;50.748;7.102;2023-04-06T02:24:28;3.40;99.90
32446;DHT22;18899;50.748;7.102;2023-04-06T02:26:54;3.40;99.90
32446;DHT22;18899;50.748;7.102;2023-04-06T02:29:20;3.30;99.90
32446;DHT22;18899;50.748;7.102;2023-04-06T02:31:46;3.40;99.90
32446;DHT22;18899;50.748;7.102;2023-04-06T02:34:11;3.30;99.90
32446;DHT22;18899;50.748;7.102;2023-04-06T02:36:43;3.30;99.90
32446;DHT22;18899;50.748;7.102;2023-04-06T02:39:09;3.30;99.90
32446;DHT22;18899;50.748;7.102;2023-04-06T02:41:35;3.30;99.90
32446;DHT22;18899;50.748;7.102;2023-04-06T02:44:00;3.30;99.90
32446;DHT22;18899;50.748;7.102;2023-04-06T02:46:26;3.20;99.90
32446;DHT22;18899;50.748;7.102;2023-04-06T02:48:51;3.20;99.90
32446;DHT22;18899;50.748;7.102;2023-04-06T02:51:17;3.10;99.90
32446;DHT22;18899;50.748;7.102;2023-04-06T02:53:42;3.10;99.90
32446;DHT22;18899;50.748;7.102;2023-04-06T02:56:08;3.20;99.90
32446;DHT22;18899;50.748;7.102;2023-04-06T02:58:33;3.20;99.90
32446;DHT22;18899;50.748;7.102;2023-04-06T03:00:59;3.10;99.90
32446;DHT22;18899;50.748;7.102;2023-04-06T03:03:24;3.10;99.90
32446;DHT22;18899;50.748;7.102;2023-04-06T03:05:50;3.10;99.90
32446;DHT22;18899;50.748;7.102;2023-04-06T03:08:15;3.10;99.90
32446;DHT22;18899;50.748;7.102;2023-04-06T03:10:41;3.00;99.90
32446;DHT22;18899;50.748;7.102;2023-04-06T03:13:07;2.90;99.90
32446;DHT22;18899;50.748;7.102;2023-04-06T03:15:32;2.80;99.90
32446;DHT22;18899;50.748;7.102;2023-04-06T03:17:58;2.70;99.90
32446;DHT22;18899;50.748;7.102;2023-04-06T03:20:23;2.70;99.90
32446;DHT22;18899;50.748;7.102;2023-04-06T03:22:49;2.60;99.90
32446;DHT22;18899;50.748;7.102;2023-04-06T03:25:14;2.70;99.90
32446;DHT22;18899;50.748;7.102;2023-04-06T03:27:40;2.60;99.90
32446;DHT22;18899;50.748;7.102;2023-04-06T03:30:06;2.60;99.90
32446;DHT22;18899;50.748;7.102;2023-04-06T03:32:31;2.40;99.90
32446;DHT22;18899;50.748;7.102;2023-04-06T03:34:57;2.30;99.90
32446;DHT22;18899;50.748;7.102;2023-04-06T03:37:22;2.20;99.90
32446;DHT22;18899;50.748;7.102;2023-04-06T03:39:48;2.10;99.90
32446;DHT22;18899;50.748;7.102;2023-04-06T03:42:13;2.10;99.90
32446;DHT22;18899;50.748;7.102;2023-04-06T03:44:39;2.10;99.90
32446;DHT22;18899;50.748;7.102;2023-04-06T03:47:04;2.20;99.90
32446;DHT22;18899;50.748;7.102;2023-04-06T03:49:30;2.20;99.90
32446;DHT22;18899;50.748;7.102;2023-04-06T03:51:56;2.20;99.90
32446;DHT22;18899;50.748;7.102;2023-04-06T03:54:21;2.20;99.90
32446;DHT22;18899;50.748;7.102;2023-04-06T03:56:47;2.20;99.90
32446;DHT22;18899;50.748;7.102;2023-04-06T03:59:13;2.20;99.90
32446;DHT22;18899;50.748;7.102;2023-04-06T04:01:38;2.20;99.90
32446;DHT22;18899;50.748;7.102;2023-04-06T04:04:04;2.10;99.90
32446;DHT22;18899;50.748;7.102;2023-04-06T04:06:30;2.10;99.90
32446;DHT22;18899;50.748;7.102;2023-04-06T04:08:55;2.10;99.90
32446;DHT22;18899;50.748;7.102;2023-04-06T04:11:21;2.30;99.90
32446;DHT22;18899;50.748;7.102;2023-04-06T04:13:47;2.30;99.90
32446;DHT22;18899;50.748;7.102;2023-04-06T04:16:12;2.30;99.90
32446;DHT22;18899;50.748;7.102;2023-04-06T04:18:38;2.30;99.90
32446;DHT22;18899;50.748;7.102;2023-04-06T04:21:03;2.30;99.90
32446;DHT22;18899;50.748;7.102;2023-04-06T04:23:29;2.40;99.90
32446;DHT22;18899;50.748;7.102;2023-04-06T04:25:54;2.60;99.90
32446;DHT22;18899;50.748;7.102;2023-04-06T04:28:20;2.50;99.90
32446;DHT22;18899;50.748;7.102;2023-04-06T04:30:46;2.50;99.90
32446;DHT22;18899;50.748;7.102;2023-04-06T04:33:11;2.40;99.90
32446;DHT22;18899;50.748;7.102;2023-04-06T04:35:37;2.40;99.90
32446;DHT22;18899;50.748;7.102;2023-04-06T04:38:02;2.40;99.90
32446;DHT22;18899;50.748;7.102;2023-04-06T04:40:28;2.30;99.90
32446;DHT22;18899;50.748;7.102;2023-04-06T04:42:53;2.30;99.90
32446;DHT22;18899;50.748;7.102;2023-04-06T04:45:19;2.40;99.90
32446;DHT22;18899;50.748;7.102;2023-04-06T04:47:45;2.50;99.90
32446;DHT22;18899;50.748;7.102;2023-04-06T04:50:10;2.50;99.90
32446;DHT22;18899;50.748;7.102;2023-04-06T04:52:37;2.60;99.90
32446;DHT22;18899;50.748;7.102;2023-04-06T04:55:03;2.70;99.90
32446;DHT22;18899;50.748;7.102;2023-04-06T04:57:29;3.00;99.90
32446;DHT22;18899;50.748;7.102;2023-04-06T04:59:54;3.00;99.90
32446;DHT22;18899;50.748;7.102;2023-04-06T05:02:20;2.90;99.90
32446;DHT22;18899;50.748;7.102;2023-04-06T05:04:45;3.00;99.90
32446;DHT22;18899;50.748;7.102;2023-04-06T05:07:11;3.00;99.90
32446;DHT22;18899;50.748;7.102;2023-04-06T05:09:36;3.00;99.90
32446;DHT22;18899;50.748;7.102;2023-04-06T05:12:02;3.30;99.90
32446;DHT22;18899;50.748;7.102;2023-04-06T05:14:28;3.20;99.90
32446;DHT22;18899;50.748;7.102;2023-04-06T05:16:53;3.20;99.90
32446;DHT22;18899;50.748;7.102;2023-04-06T05:19:19;3.30;99.90
32446;DHT22;18899;50.748;7.102;2023-04-06T05:21:45;3.40;99.90
32446;DHT22;18899;50.748;7.102;2023-04-06T05:24:11;3.60;99.90
32446;DHT22;18899;50.748;7.102;2023-04-06T05:26:36;3.80;99.90
32446;DHT22;18899;50.748;7.102;2023-04-06T05:29:02;3.80;99.90
32446;DHT22;18899;50.748;7.102;2023-04-06T05:31:28;3.90;99.90
32446;DHT22;18899;50.748;7.102;2023-04-06T05:33:54;3.90;99.90
32446;DHT22;18899;50.748;7.102;2023-04-06T05:36:19;4.10;99.90
32446;DHT22;18899;50.748;7.102;2023-04-06T05:38:45;4.30;99.90
32446;DHT22;18899;50.748;7.102;2023-04-06T05:41:10;4.50;99.90
32446;DHT22;18899;50.748;7.102;2023-04-06T05:43:36;4.80;99.90
32446;DHT22;18899;50.748;7.102;2023-04-06T05:46:02;5.00;99.90
32446;DHT22;18899;50.748;7.102;2023-04-06T05:48:28;5.20;99.90
32446;DHT22;18899;50.748;7.102;2023-04-06T05:50:54;5.50;99.90
32446;DHT22;18899;50.748;7.102;2023-04-06T05:53:20;5.60;99.90
32446;DHT22;18899;50.748;7.102;2023-04-06T05:55:46;5.80;99.90
32446;DHT22;18899;50.748;7.102;2023-04-06T05:58:12;6.10;99.90
32446;DHT22;18899;50.748;7.102;2023-04-06T06:00:37;6.30;99.90
32446;DHT22;18899;50.748;7.102;2023-04-06T06:03:03;6.60;99.90
32446;DHT22;18899;50.748;7.102;2023-04-06T06:05:30;6.80;99.90
32446;DHT22;18899;50.748;7.102;2023-04-06T06:07:55;6.90;99.90
32446;DHT22;18899;50.748;7.102;2023-04-06T06:10:21;7.00;99.90
32446;DHT22;18899;50.748;7.102;2023-04-06T06:12:46;7.00;99.90
32446;DHT22;18899;50.748;7.102;2023-04-06T06:15:12;7.00;99.90
32446;DHT22;18899;50.748;7.102;2023-04-06T06:17:38;7.30;99.90
32446;DHT22;18899;50.748;7.102;2023-04-06T06:20:07;7.60;99.90
32446;DHT22;18899;50.748;7.102;2023-04-06T06:22:33;7.70;99.90
32446;DHT22;18899;50.748;7.102;2023-04-06T06:24:59;7.90;99.90
32446;DHT22;18899;50.748;7.102;2023-04-06T06:27:24;8.10;99.90
32446;DHT22;18899;50.748;7.102;2023-04-06T06:29:50;8.20;99.90
32446;DHT22;18899;50.748;7.102;2023-04-06T06:32:16;8.30;99.90
32446;DHT22;18899;50.748;7.102;2023-04-06T06:34:41;8.40;96.90
32446;DHT22;18899;50.748;7.102;2023-04-06T06:37:07;8.70;97.20
32446;DHT22;18899;50.748;7.102;2023-04-06T06:39:32;8.80;97.10
32446;DHT22;18899;50.748;7.102;2023-04-06T06:41:58;9.70;91.20
32446;DHT22;18899;50.748;7.102;2023-04-06T06:44:26;10.30;87.40
32446;DHT22;18899;50.748;7.102;2023-04-06T06:46:52;11.10;79.90
32446;DHT22;18899;50.748;7.102;2023-04-06T06:49:18;12.10;74.80
32446;DHT22;18899;50.748;7.102;2023-04-06T06:51:44;12.60;72.50
32446;DHT22;18899;50.748;7.102;2023-04-06T06:54:09;13.20;67.70
32446;DHT22;18899;50.748;7.102;2023-04-06T06:56:35;13.80;65.70
32446;DHT22;18899;50.748;7.102;2023-04-06T06:59:03;14.00;64.20
32446;DHT22;18899;50.748;7.102;2023-04-06T07:01:28;14.30;60.10
32446;DHT22;18899;50.748;7.102;2023-04-06T07:03:54;14.70;58.90
32446;DHT22;18899;50.748;7.102;2023-04-06T07:06:20;14.90;56.90
32446;DHT22;18899;50.748;7.102;2023-04-06T07:08:46;14.70;58.60
32446;DHT22;18899;50.748;7.102;2023-04-06T07:11:11;14.50;57.30
32446;DHT22;18899;50.748;7.102;2023-04-06T07:13:37;15.20;56.00
32446;DHT22;18899;50.748;7.102;2023-04-06T07:16:03;15.50;54.70
32446;DHT22;18899;50.748;7.102;2023-04-06T07:18:28;15.30;56.40
32446;DHT22;18899;50.748;7.102;2023-04-06T07:20:54;15.70;53.60
32446;DHT22;18899;50.748;7.102;2023-04-06T07:23:19;15.80;55.30
32446;DHT22;18899;50.748;7.102;2023-04-06T07:25:45;15.80;54.30
32446;DHT22;18899;50.748;7.102;2023-04-06T07:28:11;16.00;54.20
32446;DHT22;18899;50.748;7.102;2023-04-06T07:30:37;16.70;52.50
32446;DHT22;18899;50.748;7.102;2023-04-06T07:33:03;17.10;50.80
32446;DHT22;18899;50.748;7.102;2023-04-06T07:35:29;17.20;52.80
32446;DHT22;18899;50.748;7.102;2023-04-06T07:37:55;17.50;49.90
32446;DHT22;18899;50.748;7.102;2023-04-06T07:40:21;18.30;47.00
32446;DHT22;18899;50.748;7.102;2023-04-06T07:42:47;18.60;47.50
32446;DHT22;18899;50.748;7.102;2023-04-06T07:45:13;17.90;51.00
32446;DHT22;18899;50.748;7.102;2023-04-06T07:47:38;18.80;46.80
32446;DHT22;18899;50.748;7.102;2023-04-06T07:50:04;19.50;44.50
32446;DHT22;18899;50.748;7.102;2023-04-06T07:52:30;20.10;43.20
32446;DHT22;18899;50.748;7.102;2023-04-06T07:54:58;20.60;42.70
32446;DHT22;18899;50.748;7.102;2023-04-06T07:57:23;20.50;44.50
32446;DHT22;18899;50.748;7.102;2023-04-06T07:59:49;19.60;44.10
32446;DHT22;18899;50.748;7.102;2023-04-06T08:02:15;20.20;43.60
32446;DHT22;18899;50.748;7.102;2023-04-06T08:04:40;20.70;43.80
32446;DHT22;18899;50.748;7.102;2023-04-06T08:07:06;20.10;45.10
32446;DHT22;18899;50.748;7.102;2023-04-06T08:09:32;18.80;46.50
32446;DHT22;18899;50.748;7.102;2023-04-06T08:11:57;17.90;48.90
32446;DHT22;18899;50.748;7.102;2023-04-06T08:14:23;16.70;53.30
32446;DHT22;18899;50.748;7.102;2023-04-06T08:16:49;16.80;50.60
32446;DHT22;18899;50.748;7.102;2023-04-06T08:19:15;16.90;50.10
32446;DHT22;18899;50.748;7.102;2023-04-06T08:21:42;16.90;49.50
32446;DHT22;18899;50.748;7.102;2023-04-06T08:24:08;17.00;49.20
32446;DHT22;18899;50.748;7.102;2023-04-06T08:26:34;16.90;52.10
32446;DHT22;18899;50.748;7.102;2023-04-06T08:28:59;16.90;50.60
32446;DHT22;18899;50.748;7.102;2023-04-06T08:31:25;17.20;52.30
32446;DHT22;18899;50.748;7.102;2023-04-06T08:33:51;17.00;52.70
32446;DHT22;18899;50.748;7.102;2023-04-06T08:36:17;17.30;51.40
32446;DHT22;18899;50.748;7.102;2023-04-06T08:38:47;17.80;50.90
32446;DHT22;18899;50.748;7.102;2023-04-06T08:41:14;18.60;48.70
32446;DHT22;18899;50.748;7.102;2023-04-06T08:43:47;18.60;48.70
32446;DHT22;18899;50.748;7.102;2023-04-06T08:46:12;18.40;49.90
32446;DHT22;18899;50.748;7.102;2023-04-06T08:48:40;19.00;48.90
32446;DHT22;18899;50.748;7.102;2023-04-06T08:51:06;19.90;46.90
32446;DHT22;18899;50.748;7.102;2023-04-06T08:53:31;20.10;44.20
32446;DHT22;18899;50.748;7.102;2023-04-06T08:55:58;19.90;48.30
32446;DHT22;18899;50.748;7.102;2023-04-06T08:58:24;19.50;48.00
32446;DHT22;18899;50.748;7.102;2023-04-06T09:00:51;19.20;48.90
32446;DHT22;18899;50.748;7.102;2023-04-06T09:03:17;18.90;48.60
32446;DHT22;18899;50.748;7.102;2023-04-06T09:05:44;18.90;49.30
32446;DHT22;18899;50.748;7.102;2023-04-06T09:08:10;19.30;49.60
32446;DHT22;18899;50.748;7.102;2023-04-06T09:10:40;19.80;48.40
32446;DHT22;18899;50.748;7.102;2023-04-06T09:13:06;20.20;46.50
32446;DHT22;18899;50.748;7.102;2023-04-06T09:15:32;20.70;46.40
32446;DHT22;18899;50.748;7.102;2023-04-06T09:17:57;20.80;46.00
32446;DHT22;18899;50.748;7.102;2023-04-06T09:20:24;21.30;44.40
32446;DHT22;18899;50.748;7.102;2023-04-06T09:22:54;22.20;42.30
32446;DHT22;18899;50.748;7.102;2023-04-06T09:25:22;22.90;43.10
32446;DHT22;18899;50.748;7.102;2023-04-06T09:28:01;22.50;41.20
32446;DHT22;18899;50.748;7.102;2023-04-06T09:30:27;21.80;42.80
32446;DHT22;18899;50.748;7.102;2023-04-06T09:32:55;21.30;42.30
32446;DHT22;18899;50.748;7.102;2023-04-06T09:35:21;20.90;45.50
32446;DHT22;18899;50.748;7.102;2023-04-06T09:37:47;20.80;44.80
32446;DHT22;18899;50.748;7.102;2023-04-06T09:40:13;21.00;44.60
32446;DHT22;18899;50.748;7.102;2023-04-06T09:42:44;21.00;44.30
32446;DHT22;18899;50.748;7.102;2023-04-06T09:45:10;21.00;45.80
32446;DHT22;18899;50.748;7.102;2023-04-06T09:47:36;21.20;45.10
32446;DHT22;18899;50.748;7.102;2023-04-06T09:50:03;21.60;41.70
32446;DHT22;18899;50.748;7.102;2023-04-06T09:52:33;21.00;44.90
32446;DHT22;18899;50.748;7.102;2023-04-06T09:55:04;19.90;47.10
32446;DHT22;18899;50.748;7.102;2023-04-06T10:00:09;18.90;49.90
32446;DHT22;18899;50.748;7.102;2023-04-06T10:02:56;18.50;50.30
32446;DHT22;18899;50.748;7.102;2023-04-06T10:05:37;18.10;48.20
32446;DHT22;18899;50.748;7.102;2023-04-06T10:08:08;18.00;48.40
32446;DHT22;18899;50.748;7.102;2023-04-06T10:10:34;18.50;47.00
32446;DHT22;18899;50.748;7.102;2023-04-06T10:13:00;19.10;43.60
32446;DHT22;18899;50.748;7.102;2023-04-06T10:15:28;18.50;43.90
32446;DHT22;18899;50.748;7.102;2023-04-06T10:17:54;18.50;46.10
32446;DHT22;18899;50.748;7.102;2023-04-06T10:20:36;18.60;46.20
32446;DHT22;18899;50.748;7.102;2023-04-06T10:23:37;18.00;46.00
32446;DHT22;18899;50.748;7.102;2023-04-06T10:26:01;17.60;46.60
32446;DHT22;18899;50.748;7.102;2023-04-06T10:28:36;17.40;46.90
32446;DHT22;18899;50.748;7.102;2023-04-06T10:31:04;17.80;47.60
32446;DHT22;18899;50.748;7.102;2023-04-06T10:33:31;18.60;45.90
32446;DHT22;18899;50.748;7.102;2023-04-06T10:35:56;19.20;48.00
32446;DHT22;18899;50.748;7.102;2023-04-06T10:38:37;19.20;44.00
32446;DHT22;18899;50.748;7.102;2023-04-06T10:41:20;18.90;44.20
32446;DHT22;18899;50.748;7.102;2023-04-06T10:43:55;17.90;48.60
32446;DHT22;18899;50.748;7.102;2023-04-06T10:46:25;17.00;47.30
32446;DHT22;18899;50.748;7.102;2023-04-06T10:48:51;16.30;49.10
32446;DHT22;18899;50.748;7.102;2023-04-06T10:51:18;16.10;49.30
32446;DHT22;18899;50.748;7.102;2023-04-06T10:53:47;15.80;50.10
32446;DHT22;18899;50.748;7.102;2023-04-06T10:56:18;15.60;50.60
32446;DHT22;18899;50.748;7.102;2023-04-06T10:58:54;15.40;51.10
32446;DHT22;18899;50.748;7.102;2023-04-06T11:01:22;15.40;51.00
32446;DHT22;18899;50.748;7.102;2023-04-06T11:03:53;16.00;49.40
32446;DHT22;18899;50.748;7.102;2023-04-06T11:06:20;16.50;48.90
32446;DHT22;18899;50.748;7.102;2023-04-06T11:08:46;16.70;48.80
32446;DHT22;18899;50.748;7.102;2023-04-06T11:11:13;16.80;48.10
32446;DHT22;18899;50.748;7.102;2023-04-06T11:13:53;16.70;48.60
32446;DHT22;18899;50.748;7.102;2023-04-06T11:16:26;16.50;49.00
32446;DHT22;18899;50.748;7.102;2023-04-06T11:21:39;16.00;49.60
32446;DHT22;18899;50.748;7.102;2023-04-06T11:26:41;15.60;51.20
32446;DHT22;18899;50.748;7.102;2023-04-06T11:29:08;15.60;51.80
32446;DHT22;18899;50.748;7.102;2023-04-06T11:31:41;15.90;50.40
32446;DHT22;18899;50.748;7.102;2023-04-06T11:34:11;16.00;50.00
32446;DHT22;18899;50.748;7.102;2023-04-06T11:36:40;15.90;48.90
32446;DHT22;18899;50.748;7.102;2023-04-06T11:39:06;15.50;50.30
32446;DHT22;18899;50.748;7.102;2023-04-06T11:41:32;15.50;51.20
32446;DHT22;18899;50.748;7.102;2023-04-06T11:44:01;16.10;50.70
32446;DHT22;18899;50.748;7.102;2023-04-06T11:46:26;16.10;51.40
32446;DHT22;18899;50.748;7.102;2023-04-06T11:48:52;16.30;52.80
32446;DHT22;18899;50.748;7.102;2023-04-06T11:51:23;15.90;50.10
32446;DHT22;18899;50.748;7.102;2023-04-06T11:53:54;15.80;50.40
32446;DHT22;18899;50.748;7.102;2023-04-06T11:56:29;16.20;51.00
32446;DHT22;18899;50.748;7.102;2023-04-06T11:58:55;16.10;49.90
32446;DHT22;18899;50.748;7.102;2023-04-06T12:01:22;15.90;51.20
32446;DHT22;18899;50.748;7.102;2023-04-06T12:03:48;15.60;51.10
32446;DHT22;18899;50.748;7.102;2023-04-06T12:06:14;15.50;51.80
32446;DHT22;18899;50.748;7.102;2023-04-06T12:08:40;15.60;51.40
32446;DHT22;18899;50.748;7.102;2023-04-06T12:11:05;15.60;52.40
32446;DHT22;18899;50.748;7.102;2023-04-06T12:13:31;15.70;51.70
32446;DHT22;18899;50.748;7.102;2023-04-06T12:15:56;15.60;51.50
32446;DHT22;18899;50.748;7.102;2023-04-06T12:18:22;15.60;52.70
32446;DHT22;18899;50.748;7.102;2023-04-06T12:20:48;15.40;51.20
32446;DHT22;18899;50.748;7.102;2023-04-06T12:23:13;15.50;52.00
32446;DHT22;18899;50.748;7.102;2023-04-06T12:25:40;15.60;51.20
32446;DHT22;18899;50.748;7.102;2023-04-06T12:28:06;15.80;50.60
32446;DHT22;18899;50.748;7.102;2023-04-06T12:30:32;16.00;51.60
32446;DHT22;18899;50.748;7.102;2023-04-06T12:32:58;16.10;51.40
32446;DHT22;18899;50.748;7.102;2023-04-06T12:35:23;15.90;50.30
32446;DHT22;18899;50.748;7.102;2023-04-06T12:37:49;15.80;49.20
32446;DHT22;18899;50.748;7.102;2023-04-06T12:40:15;15.90;47.00
32446;DHT22;18899;50.748;7.102;2023-04-06T12:42:40;16.10;48.50
32446;DHT22;18899;50.748;7.102;2023-04-06T12:45:10;16.10;48.20
32446;DHT22;18899;50.748;7.102;2023-04-06T12:47:36;16.20;49.00
32446;DHT22;18899;50.748;7.102;2023-04-06T12:50:02;16.50;51.00
32446;DHT22;18899;50.748;7.102;2023-04-06T12:52:27;16.20;49.90
32446;DHT22;18899;50.748;7.102;2023-04-06T12:54:56;16.20;50.30
32446;DHT22;18899;50.748;7.102;2023-04-06T12:57:21;16.40;48.60
32446;DHT22;18899;50.748;7.102;2023-04-06T12:59:47;16.30;48.80
32446;DHT22;18899;50.748;7.102;2023-04-06T13:02:12;16.20;48.30
32446;DHT22;18899;50.748;7.102;2023-04-06T13:04:38;16.10;48.90
32446;DHT22;18899;50.748;7.102;2023-04-06T13:07:04;16.30;49.40
32446;DHT22;18899;50.748;7.102;2023-04-06T13:09:30;16.00;50.20
32446;DHT22;18899;50.748;7.102;2023-04-06T13:11:55;16.00;51.00
32446;DHT22;18899;50.748;7.102;2023-04-06T13:14:21;15.60;52.50
32446;DHT22;18899;50.748;7.102;2023-04-06T13:16:47;15.80;52.30
32446;DHT22;18899;50.748;7.102;2023-04-06T13:19:12;15.70;52.60
32446;DHT22;18899;50.748;7.102;2023-04-06T13:21:39;15.50;52.70
32446;DHT22;18899;50.748;7.102;2023-04-06T13:24:04;15.20;52.80
32446;DHT22;18899;50.748;7.102;2023-04-06T13:26:30;14.90;53.80
32446;DHT22;18899;50.748;7.102;2023-04-06T13:28:56;14.80;54.50
32446;DHT22;18899;50.748;7.102;2023-04-06T13:31:22;14.50;54.80
32446;DHT22;18899;50.748;7.102;2023-04-06T13:33:47;14.50;55.60
32446;DHT22;18899;50.748;7.102;2023-04-06T13:36:13;14.30;56.20
32446;DHT22;18899;50.748;7.102;2023-04-06T13:38:38;14.10;56.00
32446;DHT22;18899;50.748;7.102;2023-04-06T13:41:04;14.10;56.70
32446;DHT22;18899;50.748;7.102;2023-04-06T13:43:30;14.00;57.50
32446;DHT22;18899;50.748;7.102;2023-04-06T13:45:57;14.00;57.50
32446;DHT22;18899;50.748;7.102;2023-04-06T13:48:25;13.90;58.20
32446;DHT22;18899;50.748;7.102;2023-04-06T13:50:51;13.70;59.00
32446;DHT22;18899;50.748;7.102;2023-04-06T13:53:17;13.50;61.30
32446;DHT22;18899;50.748;7.102;2023-04-06T13:55:43;13.30;63.00
32446;DHT22;18899;50.748;7.102;2023-04-06T13:58:09;13.30;62.40
32446;DHT22;18899;50.748;7.102;2023-04-06T14:00:35;13.30;62.80
32446;DHT22;18899;50.748;7.102;2023-04-06T14:03:01;13.20;62.70
32446;DHT22;18899;50.748;7.102;2023-04-06T14:05:31;13.30;63.20
32446;DHT22;18899;50.748;7.102;2023-04-06T14:07:56;13.30;62.70
32446;DHT22;18899;50.748;7.102;2023-04-06T14:10:22;13.30;62.70
32446;DHT22;18899;50.748;7.102;2023-04-06T14:12:49;13.60;63.20
32446;DHT22;18899;50.748;7.102;2023-04-06T14:15:14;13.20;63.70
32446;DHT22;18899;50.748;7.102;2023-04-06T14:17:40;13.20;65.60
32446;DHT22;18899;50.748;7.102;2023-04-06T14:20:07;12.90;66.80
32446;DHT22;18899;50.748;7.102;2023-04-06T14:22:33;12.70;68.80
32446;DHT22;18899;50.748;7.102;2023-04-06T14:24:58;12.80;69.70
32446;DHT22;18899;50.748;7.102;2023-04-06T14:27:24;13.10;69.30
32446;DHT22;18899;50.748;7.102;2023-04-06T14:29:50;13.20;67.90
32446;DHT22;18899;50.748;7.102;2023-04-06T14:32:16;13.00;67.90
32446;DHT22;18899;50.748;7.102;2023-04-06T14:34:42;12.80;68.80
32446;DHT22;18899;50.748;7.102;2023-04-06T14:37:07;12.70;69.60
32446;DHT22;18899;50.748;7.102;2023-04-06T14:39:33;12.70;70.50
32446;DHT22;18899;50.748;7.102;2023-04-06T14:41:58;12.60;71.00
32446;DHT22;18899;50.748;7.102;2023-04-06T14:44:24;12.50;72.30
32446;DHT22;18899;50.748;7.102;2023-04-06T14:46:49;12.70;75.50
32446;DHT22;18899;50.748;7.102;2023-04-06T14:49:15;12.60;75.00
32446;DHT22;18899;50.748;7.102;2023-04-06T14:51:41;12.20;77.30
32446;DHT22;18899;50.748;7.102;2023-04-06T14:54:07;12.00;80.20
32446;DHT22;18899;50.748;7.102;2023-04-06T14:56:32;11.80;84.30
32446;DHT22;18899;50.748;7.102;2023-04-06T14:58:58;11.70;88.60
32446;DHT22;18899;50.748;7.102;2023-04-06T15:01:27;11.60;93.50
32446;DHT22;18899;50.748;7.102;2023-04-06T15:03:53;11.60;96.30
32446;DHT22;18899;50.748;7.102;2023-04-06T15:06:18;11.60;99.90
32446;DHT22;18899;50.748;7.102;2023-04-06T15:08:47;11.60;99.90
32446;DHT22;18899;50.748;7.102;2023-04-06T15:11:13;11.60;99.90
32446;DHT22;18899;50.748;7.102;2023-04-06T15:13:39;11.50;99.90
32446;DHT22;18899;50.748;7.102;2023-04-06T15:16:05;11.50;99.90
32446;DHT22;18899;50.748;7.102;2023-04-06T15:18:31;11.40;99.90
32446;DHT22;18899;50.748;7.102;2023-04-06T15:20:56;11.50;99.90
32446;DHT22;18899;50.748;7.102;2023-04-06T15:23:22;11.50;99.90
32446;DHT22;18899;50.748;7.102;2023-04-06T15:25:48;11.70;99.90
32446;DHT22;18899;50.748;7.102;2023-04-06T15:28:13;11.80;99.90
32446;DHT22;18899;50.748;7.102;2023-04-06T15:30:39;11.70;99.90
32446;DHT22;18899;50.748;7.102;2023-04-06T15:33:07;11.70;99.90
32446;DHT22;18899;50.748;7.102;2023-04-06T15:35:33;11.80;99.90
32446;DHT22;18899;50.748;7.102;2023-04-06T15:38:10;11.70;99.90
32446;DHT22;18899;50.748;7.102;2023-04-06T15:40:44;11.60;99.90